MSC Mandraki — SZUH — position and weather

sailwx.info

Track history (hours):
 
Tides and Currents Weather Stations Pressure Air Temp Water Temp Dewpoint Dewpoint Depression Visibility Wind Speed Wind Dir Waves Ship Positions

MSC Mandraki

Last reported at 2015-Jul-02 00:33 UTC. Time now 2015-Jul-02 00:58 UTC.
Position N 40°29' W 073°39'.

Length 294 m; draft 9.4 m.

Type: Ship. MMSI: 240265000.

Date/timePositionNaut miles runAvg speedWind from/ knotsBaromVisibWave heightAir tempDewpointWater temp
2015-Jul-02 00:33N 40°29' W 073°39'0 0.1
2015-Jul-01 23:33N 40°29' W 073°39'0 0.0
2015-Jul-01 22:24N 40°29' W 073°39'0 0.0
2015-Jul-01 21:33N 40°29' W 073°39'0 0.0
2015-Jul-01 20:30N 40°29' W 073°39'0 0.0
2015-Jul-01 19:30N 40°29' W 073°39'0 0.0
2015-Jul-01 18:24N 40°29' W 073°39'0 0.0
2015-Jul-01 17:30N 40°29' W 073°39'0 0.1
2015-Jul-01 16:21N 40°29' W 073°39'0 0.1
2015-Jul-01 15:30N 40°29' W 073°39'0 0.0
2015-Jul-01 14:30N 40°29' W 073°39'0 0.0
2015-Jul-01 13:27N 40°29' W 073°39'0 0.0
2015-Jul-01 12:33N 40°29' W 073°39'0 0.1
2015-Jul-01 11:33N 40°29' W 073°39'0 0.2
2015-Jul-01 10:30N 40°29' W 073°39'0 0.1
2015-Jul-01 09:30N 40°29' W 073°39'0 0.3
2015-Jul-01 08:33N 40°29' W 073°39'0 0.1
2015-Jul-01 07:27N 40°29' W 073°39'4 4.7
2015-Jul-01 06:33N 40°27' W 073°43'10 9.7
2015-Jul-01 05:33N 40°17' W 073°46'1110.9
2015-Jul-01 04:33N 40°06' W 073°43'1514.8
2015-Jul-01 03:33N 39°52' W 073°41'1514.7
2015-Jul-01 02:33N 39°37' W 073°40'1514.6
2015-Jul-01 01:33N 39°22' W 073°40'1514.6
2015-Jul-01 00:33N 39°08' W 073°45'1514.9
2015-Jun-30 23:33N 38°54' W 073°52'1515.1
2015-Jun-30 22:34N 38°40' W 073°59'1515.3
2015-Jun-30 21:33N 38°26' W 074°05'1515.3
2015-Jun-30 20:34N 38°11' W 074°10'1515.2
2015-Jun-30 19:34N 37°56' W 074°15'1514.9
2015-Jun-30 18:33N 37°42' W 074°19'4113.8
2015-Jun-30 15:33N 37°03' W 074°36'1515.3
2015-Jun-30 14:34N 36°58' W 074°55'4815.8
2015-Jun-30 11:31N 36°54' W 075°55'1112.0
2015-Jun-30 10:33N 36°59' W 076°08'1010.4
2015-Jun-30 09:33N 36°56' W 076°20'5 4.6
2015-Jun-30 08:31N 36°51' W 076°20'71 3.1
2015-Jun-29 09:24N 38°03' W 076°13'4815.6
2015-Jun-29 06:19N 38°50' W 076°24'1214.7
2015-Jun-29 05:28N 39°02' W 076°23'1111.7
2015-Jun-29 04:34N 39°12' W 076°29'5 4.4
2015-Jun-29 03:31N 39°15' W 076°33'0 0.0
2015-Jun-29 02:31N 39°15' W 076°33'0 0.0
2015-Jun-29 01:31N 39°15' W 076°33'0 0.0
2015-Jun-29 00:31N 39°15' W 076°33'0 0.0
2015-Jun-28 23:31N 39°15' W 076°33'0 0.0
2015-Jun-28 22:31N 39°15' W 076°33'0 0.0
2015-Jun-28 21:31N 39°15' W 076°33'0 0.0
2015-Jun-28 20:31N 39°15' W 076°33'0 0.0
2015-Jun-28 19:31N 39°15' W 076°33'0 0.0
2015-Jun-28 18:31N 39°15' W 076°33'0 0.0
2015-Jun-28 17:31N 39°15' W 076°33'0 0.0
2015-Jun-28 16:31N 39°15' W 076°33'0 0.0
2015-Jun-28 15:31N 39°15' W 076°33'0 0.0
2015-Jun-28 14:31N 39°15' W 076°33'0 0.0
2015-Jun-28 13:31N 39°15' W 076°33'0 0.0
2015-Jun-28 12:31N 39°15' W 076°33'0 0.0
2015-Jun-28 11:31N 39°15' W 076°33'0 0.0
2015-Jun-28 10:32N 39°15' W 076°33'2 2.0
2015-Jun-28 09:33N 39°13' W 076°32'5 5.0
2015-Jun-28 08:29N 39°11' W 076°26'1312.7
2015-Jun-28 07:30N 38°58' W 076°23'4914.6
2015-Jun-28 04:07N 38°09' W 076°14'916.0
2015-Jun-28 03:33N 38°00' W 076°12'94 6.2
2015-Jun-27 12:21N 37°17' W 074°26'1615.0
2015-Jun-27 11:17N 37°33' W 074°22'1115.2
2015-Jun-27 10:33N 37°44' W 074°18'1515.1
2015-Jun-27 09:33N 37°58' W 074°14'1514.8
2015-Jun-27 08:33N 38°13' W 074°10'1413.7
2015-Jun-27 07:33N 38°26' W 074°05'1413.7
2015-Jun-27 06:33N 38°39' W 074°02'1413.8
2015-Jun-27 05:33N 38°53' W 073°57'1413.8
2015-Jun-27 04:33N 39°06' W 073°54'1413.7
2015-Jun-27 03:31N 39°21' W 073°52'1313.6
2015-Jun-27 02:33N 39°34' W 073°52'1413.7
2015-Jun-27 01:33N 39°47' W 073°53'1413.7
2015-Jun-27 00:33N 40°01' W 073°50'1413.8
2015-Jun-26 23:31N 40°15' W 073°49'1111.3
2015-Jun-26 22:33N 40°26' W 073°50'1312.8
2015-Jun-26 21:33N 40°35' W 074°02'7 6.8
2015-Jun-26 20:33N 40°39' W 074°09'1 1.0
2015-Jun-26 19:30N 40°40' W 074°09'0 0.0
2015-Jun-26 18:33N 40°40' W 074°09'0 0.0
2015-Jun-26 17:33N 40°40' W 074°09'0 0.0
2015-Jun-26 16:33N 40°40' W 074°09'0 0.0
2015-Jun-26 15:33N 40°40' W 074°09'0 0.0
2015-Jun-26 14:33N 40°40' W 074°09'0 0.0
2015-Jun-26 13:33N 40°40' W 074°09'0 0.0
2015-Jun-26 12:33N 40°40' W 074°09'0 0.0
2015-Jun-26 11:30N 40°40' W 074°09'0 0.0
2015-Jun-26 10:33N 40°40' W 074°09'0 0.0
2015-Jun-26 09:33N 40°40' W 074°09'0 0.0
2015-Jun-26 08:33N 40°40' W 074°09'0 0.0
2015-Jun-26 07:33N 40°40' W 074°09'0 0.0
2015-Jun-26 06:33N 40°40' W 074°09'0 0.0
2015-Jun-26 05:33N 40°40' W 074°09'0 0.0
2015-Jun-26 04:33N 40°40' W 074°09'0 0.0
2015-Jun-26 03:33N 40°40' W 074°09'0 0.0
2015-Jun-26 02:33N 40°40' W 074°09'0 0.0
2015-Jun-26 01:33N 40°40' W 074°09'0 0.0
2015-Jun-26 00:33N 40°40' W 074°09'0 0.0
2015-Jun-25 23:33N 40°40' W 074°09'0 0.0
2015-Jun-25 22:33N 40°40' W 074°09'1 1.1
2015-Jun-25 21:34N 40°39' W 074°09'5 5.2
2015-Jun-25 20:33N 40°37' W 074°03'1010.4
2015-Jun-25 19:33N 40°29' W 073°54'6 5.7
2015-Jun-25 18:33N 40°28' W 073°46'3 1.9
2015-Jun-25 17:07N 40°30' W 073°43'0 0.0
2015-Jun-25 15:16N 40°30' W 073°43'0 0.0
2015-Jun-25 11:31N 40°30' W 073°43'0 0.0
2015-Jun-25 10:28N 40°30' W 073°43'0 0.0
2015-Jun-25 09:31N 40°30' W 073°43'0 0.0
2015-Jun-25 08:31N 40°30' W 073°43'0 0.1
2015-Jun-25 07:31N 40°30' W 073°43'0 0.1
2015-Jun-25 06:13N 40°30' W 073°43'0 0.3
2015-Jun-25 05:31N 40°30' W 073°43'22 9.3
2015-Jun-25 03:11N 40°29' W 073°14'1415.2
2015-Jun-25 02:17N 40°30' W 072°57'1115.4
2015-Jun-25 01:33N 40°30' W 072°42'1515.1
2015-Jun-25 00:33N 40°30' W 072°22'1514.9
2015-Jun-24 23:33N 40°31' W 072°03'1514.8
2015-Jun-24 22:33N 40°31' W 071°43'1514.7
2015-Jun-24 21:33N 40°32' W 071°24'1010.0
2015-Jun-24 20:33N 40°32' W 071°11'1312.6
2015-Jun-24 19:34N 40°32' W 070°54'1514.9
2015-Jun-24 18:33N 40°33' W 070°35'1514.8
2015-Jun-24 17:33N 40°33' W 070°15'1515.2
2015-Jun-24 16:34N 40°33' W 069°55'1615.6
2015-Jun-24 15:33N 40°34' W 069°35'1615.4
2015-Jun-24 14:31N 40°34' W 069°14'  
Track history (hours):
 
Tides and Currents Weather Stations Pressure Air Temp Water Temp Dewpoint Dewpoint Depression Visibility Wind Speed Wind Dir Waves Ship Positions

MSC Mandraki

Last reported at 2015-Jul-02 00:33 UTC. Time now 2015-Jul-02 00:58 UTC.
Position N 40°29' W 073°39'.

Length 294 m; draft 9.4 m.

Type: Ship. MMSI: 240265000.

Date/timePositionNaut miles runAvg speedWind from/ knotsBaromVisibWave heightAir tempDewpointWater temp
2015-Jul-02 00:33N 40°29' W 073°39'0 0.1
2015-Jul-01 23:33N 40°29' W 073°39'0 0.0
2015-Jul-01 22:24N 40°29' W 073°39'0 0.0
2015-Jul-01 21:33N 40°29' W 073°39'0 0.0
2015-Jul-01 20:30N 40°29' W 073°39'0 0.0
2015-Jul-01 19:30N 40°29' W 073°39'0 0.0
2015-Jul-01 18:24N 40°29' W 073°39'0 0.0
2015-Jul-01 17:30N 40°29' W 073°39'0 0.1
2015-Jul-01 16:21N 40°29' W 073°39'0 0.1
2015-Jul-01 15:30N 40°29' W 073°39'0 0.0
2015-Jul-01 14:30N 40°29' W 073°39'0 0.0
2015-Jul-01 13:27N 40°29' W 073°39'0 0.0
2015-Jul-01 12:33N 40°29' W 073°39'0 0.1
2015-Jul-01 11:33N 40°29' W 073°39'0 0.2
2015-Jul-01 10:30N 40°29' W 073°39'0 0.1
2015-Jul-01 09:30N 40°29' W 073°39'0 0.3
2015-Jul-01 08:33N 40°29' W 073°39'0 0.1
2015-Jul-01 07:27N 40°29' W 073°39'4 4.7
2015-Jul-01 06:33N 40°27' W 073°43'10 9.7
2015-Jul-01 05:33N 40°17' W 073°46'1110.9
2015-Jul-01 04:33N 40°06' W 073°43'1514.8
2015-Jul-01 03:33N 39°52' W 073°41'1514.7
2015-Jul-01 02:33N 39°37' W 073°40'1514.6
2015-Jul-01 01:33N 39°22' W 073°40'1514.6
2015-Jul-01 00:33N 39°08' W 073°45'1514.9
2015-Jun-30 23:33N 38°54' W 073°52'1515.1
2015-Jun-30 22:34N 38°40' W 073°59'1515.3
2015-Jun-30 21:33N 38°26' W 074°05'1515.3
2015-Jun-30 20:34N 38°11' W 074°10'1515.2
2015-Jun-30 19:34N 37°56' W 074°15'1514.9
2015-Jun-30 18:33N 37°42' W 074°19'4113.8
2015-Jun-30 15:33N 37°03' W 074°36'1515.3
2015-Jun-30 14:34N 36°58' W 074°55'4815.8
2015-Jun-30 11:31N 36°54' W 075°55'1112.0
2015-Jun-30 10:33N 36°59' W 076°08'1010.4
2015-Jun-30 09:33N 36°56' W 076°20'5 4.6
2015-Jun-30 08:31N 36°51' W 076°20'71 3.1
2015-Jun-29 09:24N 38°03' W 076°13'4815.6
2015-Jun-29 06:19N 38°50' W 076°24'1214.7
2015-Jun-29 05:28N 39°02' W 076°23'1111.7
2015-Jun-29 04:34N 39°12' W 076°29'5 4.4
2015-Jun-29 03:31N 39°15' W 076°33'0 0.0
2015-Jun-29 02:31N 39°15' W 076°33'0 0.0
2015-Jun-29 01:31N 39°15' W 076°33'0 0.0
2015-Jun-29 00:31N 39°15' W 076°33'0 0.0
2015-Jun-28 23:31N 39°15' W 076°33'0 0.0
2015-Jun-28 22:31N 39°15' W 076°33'0 0.0
2015-Jun-28 21:31N 39°15' W 076°33'0 0.0
2015-Jun-28 20:31N 39°15' W 076°33'0 0.0
2015-Jun-28 19:31N 39°15' W 076°33'0 0.0
2015-Jun-28 18:31N 39°15' W 076°33'0 0.0
2015-Jun-28 17:31N 39°15' W 076°33'0 0.0
2015-Jun-28 16:31N 39°15' W 076°33'0 0.0
2015-Jun-28 15:31N 39°15' W 076°33'0 0.0
2015-Jun-28 14:31N 39°15' W 076°33'0 0.0
2015-Jun-28 13:31N 39°15' W 076°33'0 0.0
2015-Jun-28 12:31N 39°15' W 076°33'0 0.0
2015-Jun-28 11:31N 39°15' W 076°33'0 0.0
2015-Jun-28 10:32N 39°15' W 076°33'2 2.0
2015-Jun-28 09:33N 39°13' W 076°32'5 5.0
2015-Jun-28 08:29N 39°11' W 076°26'1312.7
2015-Jun-28 07:30N 38°58' W 076°23'4914.6
2015-Jun-28 04:07N 38°09' W 076°14'916.0
2015-Jun-28 03:33N 38°00' W 076°12'94 6.2
2015-Jun-27 12:21N 37°17' W 074°26'1615.0
2015-Jun-27 11:17N 37°33' W 074°22'1115.2
2015-Jun-27 10:33N 37°44' W 074°18'1515.1
2015-Jun-27 09:33N 37°58' W 074°14'1514.8
2015-Jun-27 08:33N 38°13' W 074°10'1413.7
2015-Jun-27 07:33N 38°26' W 074°05'1413.7
2015-Jun-27 06:33N 38°39' W 074°02'1413.8
2015-Jun-27 05:33N 38°53' W 073°57'1413.8
2015-Jun-27 04:33N 39°06' W 073°54'1413.7
2015-Jun-27 03:31N 39°21' W 073°52'1313.6
2015-Jun-27 02:33N 39°34' W 073°52'1413.7
2015-Jun-27 01:33N 39°47' W 073°53'1413.7
2015-Jun-27 00:33N 40°01' W 073°50'1413.8
2015-Jun-26 23:31N 40°15' W 073°49'1111.3
2015-Jun-26 22:33N 40°26' W 073°50'1312.8
2015-Jun-26 21:33N 40°35' W 074°02'7 6.8
2015-Jun-26 20:33N 40°39' W 074°09'1 1.0
2015-Jun-26 19:30N 40°40' W 074°09'0 0.0
2015-Jun-26 18:33N 40°40' W 074°09'0 0.0
2015-Jun-26 17:33N 40°40' W 074°09'0 0.0
2015-Jun-26 16:33N 40°40' W 074°09'0 0.0
2015-Jun-26 15:33N 40°40' W 074°09'0 0.0
2015-Jun-26 14:33N 40°40' W 074°09'0 0.0
2015-Jun-26 13:33N 40°40' W 074°09'0 0.0
2015-Jun-26 12:33N 40°40' W 074°09'0 0.0
2015-Jun-26 11:30N 40°40' W 074°09'0 0.0
2015-Jun-26 10:33N 40°40' W 074°09'0 0.0
2015-Jun-26 09:33N 40°40' W 074°09'0 0.0
2015-Jun-26 08:33N 40°40' W 074°09'0 0.0
2015-Jun-26 07:33N 40°40' W 074°09'0 0.0
2015-Jun-26 06:33N 40°40' W 074°09'0 0.0
2015-Jun-26 05:33N 40°40' W 074°09'0 0.0
2015-Jun-26 04:33N 40°40' W 074°09'0 0.0
2015-Jun-26 03:33N 40°40' W 074°09'0 0.0
2015-Jun-26 02:33N 40°40' W 074°09'0 0.0
2015-Jun-26 01:33N 40°40' W 074°09'0 0.0
2015-Jun-26 00:33N 40°40' W 074°09'0 0.0
2015-Jun-25 23:33N 40°40' W 074°09'0 0.0
2015-Jun-25 22:33N 40°40' W 074°09'1 1.1
2015-Jun-25 21:34N 40°39' W 074°09'5 5.2
2015-Jun-25 20:33N 40°37' W 074°03'1010.4
2015-Jun-25 19:33N 40°29' W 073°54'6 5.7
2015-Jun-25 18:33N 40°28' W 073°46'3 1.9
2015-Jun-25 17:07N 40°30' W 073°43'0 0.0
2015-Jun-25 15:16N 40°30' W 073°43'0 0.0
2015-Jun-25 11:31N 40°30' W 073°43'0 0.0
2015-Jun-25 10:28N 40°30' W 073°43'0 0.0
2015-Jun-25 09:31N 40°30' W 073°43'0 0.0
2015-Jun-25 08:31N 40°30' W 073°43'0 0.1
2015-Jun-25 07:31N 40°30' W 073°43'0 0.1
2015-Jun-25 06:13N 40°30' W 073°43'0 0.3
2015-Jun-25 05:31N 40°30' W 073°43'22 9.3
2015-Jun-25 03:11N 40°29' W 073°14'1415.2
2015-Jun-25 02:17N 40°30' W 072°57'1115.4
2015-Jun-25 01:33N 40°30' W 072°42'1515.1
2015-Jun-25 00:33N 40°30' W 072°22'1514.9
2015-Jun-24 23:33N 40°31' W 072°03'1514.8
2015-Jun-24 22:33N 40°31' W 071°43'1514.7
2015-Jun-24 21:33N 40°32' W 071°24'1010.0
2015-Jun-24 20:33N 40°32' W 071°11'1312.6
2015-Jun-24 19:34N 40°32' W 070°54'1514.9
2015-Jun-24 18:33N 40°33' W 070°35'1514.8
2015-Jun-24 17:33N 40°33' W 070°15'1515.2
2015-Jun-24 16:34N 40°33' W 069°55'1615.6
2015-Jun-24 15:33N 40°34' W 069°35'1615.4
2015-Jun-24 14:31N 40°34' W 069°14'  

Dump ship's entire track history